createdAt,value
2023-05-05T00:00:26.745Z,1086.00
2023-05-05T00:01:26.653Z,1088.00
2023-05-05T00:02:26.696Z,1086.00
2023-05-05T00:03:26.543Z,1088.00
2023-05-05T00:04:26.388Z,1087.00
2023-05-05T00:05:26.293Z,1087.00
2023-05-05T00:06:26.187Z,1085.00
2023-05-05T00:07:26.106Z,1084.00
2023-05-05T00:08:26.038Z,1084.00
2023-05-05T00:09:26.014Z,1084.00
2023-05-05T00:10:25.922Z,1080.00
2023-05-05T00:11:25.832Z,1080.00
2023-05-05T00:12:25.737Z,1081.00
2023-05-05T00:13:25.646Z,1083.00
2023-05-05T00:14:25.550Z,1083.00
2023-05-05T00:15:25.461Z,1084.00
2023-05-05T00:16:25.389Z,1083.00
2023-05-05T00:17:25.285Z,1084.00
2023-05-05T00:18:25.187Z,1082.00
2023-05-05T00:19:25.087Z,1081.00
2023-05-05T00:20:25.096Z,1082.00
2023-05-05T00:21:25.105Z,1083.00
2023-05-05T00:22:25.016Z,1085.00
2023-05-05T00:23:24.914Z,1088.00
2023-05-05T00:24:24.831Z,1084.00
2023-05-05T00:25:24.734Z,1083.00
2023-05-05T00:26:24.650Z,1077.00
2023-05-05T00:27:24.650Z,1078.00
2023-05-05T00:28:24.562Z,1079.00
2023-05-05T00:29:24.541Z,1077.00
2023-05-05T00:30:24.388Z,1081.00
2023-05-05T00:31:24.334Z,1084.00
2023-05-05T00:32:24.227Z,1082.00
2023-05-05T00:33:24.117Z,1083.00
2023-05-05T00:34:24.027Z,1083.00
2023-05-05T00:35:23.955Z,1079.00
2023-05-05T00:36:23.854Z,1080.00
2023-05-05T00:37:23.750Z,1083.00
2023-05-05T00:38:23.733Z,1079.00
2023-05-05T00:39:23.643Z,1076.00
2023-05-05T00:40:23.565Z,1077.00
2023-05-05T00:41:23.451Z,1080.00
2023-05-05T00:42:23.350Z,1079.00
2023-05-05T00:43:23.299Z,1078.00
2023-05-05T00:44:23.192Z,1072.00
2023-05-05T00:45:23.097Z,1072.00
2023-05-05T00:46:23.096Z,1068.00
2023-05-05T00:47:22.918Z,1067.00
2023-05-05T00:48:22.873Z,1067.00
2023-05-05T00:49:22.836Z,1068.00
2023-05-05T00:50:22.680Z,1070.00
2023-05-05T00:51:22.592Z,1072.00
2023-05-05T00:52:22.501Z,1074.00
2023-05-05T00:53:22.405Z,1076.00
2023-05-05T00:54:22.315Z,1075.00
2023-05-05T00:55:22.219Z,1079.00
2023-05-05T00:56:22.162Z,1075.00
2023-05-05T00:57:22.029Z,1074.00
2023-05-05T00:58:21.939Z,1075.00
2023-05-05T00:59:21.845Z,1073.00
2023-05-05T01:00:21.753Z,1068.00
2023-05-05T01:01:21.693Z,1070.00
2023-05-05T01:02:21.584Z,1069.00
2023-05-05T01:03:21.636Z,1071.00
2023-05-05T01:04:21.522Z,1071.00
2023-05-05T01:05:21.441Z,1069.00
2023-05-05T01:06:21.366Z,1072.00
2023-05-05T01:07:21.270Z,1072.00
2023-05-05T01:08:21.179Z,1073.00
2023-05-05T01:09:21.193Z,1079.00
2023-05-05T01:10:21.229Z,1081.00
2023-05-05T01:11:21.027Z,1079.00
2023-05-05T01:12:21.012Z,1081.00
2023-05-05T01:13:20.852Z,1081.00
2023-05-05T01:14:20.766Z,1078.00
2023-05-05T01:15:20.681Z,1073.00
2023-05-05T01:16:20.618Z,1070.00
2023-05-05T01:17:20.498Z,1066.00
2023-05-05T01:18:20.445Z,1066.00
2023-05-05T01:19:20.367Z,1067.00
2023-05-05T01:20:20.272Z,1069.00
2023-05-05T01:21:20.187Z,1067.00
2023-05-05T01:22:20.091Z,1069.00
2023-05-05T01:23:20.005Z,1068.00
2023-05-05T01:24:19.920Z,1065.00
2023-05-05T01:25:19.821Z,1063.00
2023-05-05T01:26:19.729Z,1065.00
2023-05-05T01:27:19.652Z,1063.00
2023-05-05T01:28:19.574Z,1062.00
2023-05-05T01:29:19.477Z,1061.00
2023-05-05T01:30:19.390Z,1064.00
2023-05-05T01:31:19.340Z,1064.00
2023-05-05T01:32:19.235Z,1061.00
2023-05-05T01:33:19.117Z,1061.00
2023-05-05T01:34:19.019Z,1063.00
2023-05-05T01:35:18.925Z,1062.00
2023-05-05T01:36:18.824Z,1060.00
2023-05-05T01:37:18.742Z,1061.00
2023-05-05T01:38:18.642Z,1063.00
2023-05-05T01:39:18.543Z,1064.00
2023-05-05T01:40:18.442Z,1064.00
2023-05-05T01:41:18.354Z,1064.00
2023-05-05T01:42:18.273Z,1061.00
2023-05-05T01:43:18.187Z,1059.00
2023-05-05T01:44:18.083Z,1056.00
2023-05-05T01:45:18.000Z,1058.00
2023-05-05T01:46:18.041Z,1059.00
2023-05-05T01:47:17.831Z,1058.00
2023-05-05T01:48:17.731Z,1055.00
2023-05-05T01:49:17.691Z,1055.00
2023-05-05T01:50:17.563Z,1055.00
2023-05-05T01:51:17.482Z,1054.00
2023-05-05T01:52:17.384Z,1056.00
2023-05-05T01:53:17.299Z,1055.00
2023-05-05T01:54:17.215Z,1055.00
2023-05-05T01:55:17.117Z,1059.00
2023-05-05T01:56:17.056Z,1060.00
2023-05-05T01:57:16.958Z,1057.00
2023-05-05T01:58:16.875Z,1059.00
2023-05-05T01:59:16.789Z,1060.00
2023-05-05T02:00:16.720Z,1059.00
2023-05-05T02:01:16.633Z,1055.00
2023-05-05T02:02:16.554Z,1056.00
2023-05-05T02:03:16.557Z,1055.00
2023-05-05T02:04:16.388Z,1053.00
2023-05-05T02:05:16.290Z,1050.00
2023-05-05T02:06:16.220Z,1049.00
2023-05-05T02:07:16.158Z,1052.00
2023-05-05T02:08:16.068Z,1055.00
2023-05-05T02:09:15.969Z,1056.00
2023-05-05T02:10:15.874Z,1051.00
2023-05-05T02:11:15.801Z,1052.00
2023-05-05T02:12:15.706Z,1055.00
2023-05-05T02:13:15.733Z,1058.00
2023-05-05T02:14:15.524Z,1058.00
2023-05-05T02:15:15.480Z,1058.00
2023-05-05T02:16:15.469Z,1060.00
2023-05-05T02:17:15.284Z,1065.00
2023-05-05T02:18:15.207Z,1066.00
2023-05-05T02:19:15.182Z,1065.00
2023-05-05T02:20:15.028Z,1061.00
2023-05-05T02:21:14.940Z,1061.00
2023-05-05T02:22:14.884Z,1056.00
2023-05-05T02:23:14.783Z,1054.00
2023-05-05T02:24:14.678Z,1053.00
2023-05-05T02:25:14.588Z,1055.00
2023-05-05T02:26:14.496Z,1054.00
2023-05-05T02:27:14.406Z,1056.00
2023-05-05T02:28:14.382Z,1052.00
2023-05-05T02:29:14.260Z,1053.00
2023-05-05T02:30:14.162Z,1050.00
2023-05-05T02:31:14.108Z,1048.00
2023-05-05T02:32:13.995Z,1044.00
2023-05-05T02:33:13.926Z,1046.00
2023-05-05T02:34:13.819Z,1049.00
2023-05-05T02:35:13.724Z,1051.00
2023-05-05T02:36:13.631Z,1053.00
2023-05-05T02:37:13.611Z,1053.00
2023-05-05T02:38:13.521Z,1055.00
2023-05-05T02:39:13.433Z,1055.00
2023-05-05T02:40:13.333Z,1055.00
2023-05-05T02:41:13.309Z,1056.00
2023-05-05T02:42:13.205Z,1056.00
2023-05-05T02:43:13.135Z,1057.00
2023-05-05T02:44:13.026Z,1057.00
2023-05-05T02:45:12.957Z,1060.00
2023-05-05T02:46:12.838Z,1059.00
2023-05-05T02:47:12.762Z,1058.00
2023-05-05T02:48:12.675Z,1052.00
2023-05-05T02:49:12.572Z,1048.00
2023-05-05T02:50:12.481Z,1050.00
2023-05-05T02:51:12.390Z,1052.00
2023-05-05T02:52:12.300Z,1051.00
2023-05-05T02:53:12.211Z,1052.00
2023-05-05T02:54:12.125Z,1050.00
2023-05-05T02:55:12.030Z,1050.00
2023-05-05T02:56:11.943Z,1049.00
2023-05-05T02:57:11.839Z,1048.00
2023-05-05T02:58:11.757Z,1047.00
2023-05-05T02:59:12.478Z,1045.00
2023-05-05T03:00:11.554Z,1044.00
2023-05-05T03:01:11.514Z,1047.00
2023-05-05T03:02:11.356Z,1049.00
2023-05-05T03:03:11.362Z,1050.00
2023-05-05T03:04:11.157Z,1051.00
2023-05-05T03:05:11.074Z,1053.00
2023-05-05T03:06:10.981Z,1052.00
2023-05-05T03:07:10.877Z,1051.00
2023-05-05T03:08:10.807Z,1050.00
2023-05-05T03:09:10.681Z,1053.00
2023-05-05T03:10:10.744Z,1052.00
2023-05-05T03:11:10.500Z,1052.00
2023-05-05T03:12:10.436Z,1052.00
2023-05-05T03:13:10.394Z,1049.00
2023-05-05T03:14:10.257Z,1048.00
2023-05-05T03:15:10.167Z,1049.00
2023-05-05T03:16:10.085Z,1049.00
2023-05-05T03:17:09.968Z,1049.00
2023-05-05T03:18:09.891Z,1048.00
2023-05-05T03:19:09.878Z,1046.00
2023-05-05T03:20:09.820Z,1048.00
2023-05-05T03:21:09.619Z,1045.00
2023-05-05T03:22:09.527Z,1043.00
2023-05-05T03:23:09.442Z,1044.00
2023-05-05T03:24:09.354Z,1046.00
2023-05-05T03:25:09.254Z,1044.00
2023-05-05T03:26:09.181Z,1046.00
2023-05-05T03:27:09.078Z,1046.00
2023-05-05T03:28:09.008Z,1048.00
2023-05-05T03:29:08.917Z,1048.00
2023-05-05T03:30:08.987Z,1050.00
2023-05-05T03:31:08.701Z,1045.00
2023-05-05T03:32:08.639Z,1047.00
2023-05-05T03:33:08.536Z,1046.00
2023-05-05T03:34:08.411Z,1045.00
2023-05-05T03:35:08.316Z,1045.00
2023-05-05T03:36:08.216Z,1042.00
2023-05-05T03:37:08.121Z,1041.00
2023-05-05T03:38:08.029Z,1042.00
2023-05-05T03:39:07.928Z,1045.00
2023-05-05T03:40:08.045Z,1046.00
2023-05-05T03:41:07.744Z,1050.00
2023-05-05T03:42:07.646Z,1051.00
2023-05-05T03:43:07.556Z,1049.00
2023-05-05T03:44:07.463Z,1049.00
2023-05-05T03:45:07.369Z,1047.00
2023-05-05T03:46:07.305Z,1046.00
2023-05-05T03:47:07.196Z,1046.00
2023-05-05T03:48:07.194Z,1044.00
2023-05-05T03:49:07.016Z,1044.00
2023-05-05T03:50:07.109Z,1042.00
2023-05-05T03:51:06.870Z,1042.00
2023-05-05T03:52:06.726Z,1044.00
2023-05-05T03:53:06.653Z,1044.00
2023-05-05T03:54:06.536Z,1044.00
2023-05-05T03:55:06.495Z,1045.00
2023-05-05T03:56:06.383Z,1044.00
2023-05-05T03:57:06.293Z,1041.00
2023-05-05T03:58:06.208Z,1042.00
2023-05-05T03:59:06.110Z,1042.00
2023-05-05T04:00:06.154Z,1041.00
2023-05-05T04:01:05.920Z,1041.00
2023-05-05T04:02:05.892Z,1044.00
2023-05-05T04:03:05.916Z,1042.00
2023-05-05T04:04:05.679Z,1040.00
2023-05-05T04:05:05.601Z,1038.00
2023-05-05T04:06:05.514Z,1037.00
2023-05-05T04:07:05.397Z,1036.00
2023-05-05T04:08:05.368Z,1035.00
2023-05-05T04:09:05.225Z,1034.00
2023-05-05T04:10:05.193Z,1037.00
2023-05-05T04:11:05.029Z,1036.00
2023-05-05T04:12:04.959Z,1035.00
2023-05-05T04:13:04.907Z,1035.00
2023-05-05T04:14:04.763Z,1038.00
2023-05-05T04:15:04.690Z,1036.00
2023-05-05T04:16:04.589Z,1039.00
2023-05-05T04:17:04.477Z,1040.00
2023-05-05T04:18:04.446Z,1040.00
2023-05-05T04:19:04.305Z,1039.00
2023-05-05T04:20:04.204Z,1039.00
2023-05-05T04:21:04.116Z,1035.00
2023-05-05T04:22:04.017Z,1034.00
2023-05-05T04:23:03.948Z,1032.00
2023-05-05T04:24:03.836Z,1033.00
2023-05-05T04:25:03.755Z,1030.00
2023-05-05T04:26:03.653Z,1029.00
2023-05-05T04:27:03.556Z,1029.00
2023-05-05T04:28:03.500Z,1033.00
2023-05-05T04:29:03.375Z,1035.00
2023-05-05T04:30:03.292Z,1036.00
2023-05-05T04:31:03.297Z,1034.00
2023-05-05T04:32:03.125Z,1029.00
2023-05-05T04:33:03.149Z,1030.00
2023-05-05T04:34:02.977Z,1029.00
2023-05-05T04:35:02.874Z,1032.00
2023-05-05T04:36:02.775Z,1034.00
2023-05-05T04:37:02.680Z,1035.00
2023-05-05T04:38:02.600Z,1037.00
2023-05-05T04:39:02.527Z,1037.00
2023-05-05T04:40:02.401Z,1035.00
2023-05-05T04:41:02.321Z,1035.00
2023-05-05T04:42:02.225Z,1031.00
2023-05-05T04:43:02.131Z,1030.00
2023-05-05T04:44:02.023Z,1032.00
2023-05-05T04:45:01.953Z,1027.00
2023-05-05T04:46:01.847Z,1026.00
2023-05-05T04:47:01.754Z,1027.00
2023-05-05T04:48:01.709Z,1028.00
2023-05-05T04:49:01.551Z,1030.00
2023-05-05T04:50:01.453Z,1028.00
2023-05-05T04:51:01.361Z,1027.00
2023-05-05T04:52:01.271Z,1027.00
2023-05-05T04:53:01.170Z,1027.00
2023-05-05T04:54:01.113Z,1027.00
2023-05-05T04:55:00.979Z,1030.00
2023-05-05T04:56:00.899Z,1026.00
2023-05-05T04:57:00.800Z,1027.00
2023-05-05T04:58:00.704Z,1028.00
2023-05-05T04:59:00.614Z,1026.00
2023-05-05T05:00:00.520Z,1023.00
2023-05-05T05:01:00.435Z,1019.00
2023-05-05T05:02:00.391Z,1017.00
2023-05-05T05:03:00.345Z,1020.00
2023-05-05T05:04:00.460Z,1018.00
2023-05-05T05:05:00.081Z,1016.00
2023-05-05T05:05:59.968Z,1016.00
2023-05-05T05:06:59.866Z,1018.00
2023-05-05T05:07:59.771Z,1017.00
2023-05-05T05:08:59.676Z,1017.00
2023-05-05T05:09:59.575Z,1015.00
2023-05-05T05:10:59.487Z,1015.00
2023-05-05T05:11:59.389Z,1012.00
2023-05-05T05:12:59.303Z,1010.00
2023-05-05T05:13:59.202Z,1009.00
2023-05-05T05:14:59.130Z,1012.00
2023-05-05T05:15:59.083Z,1013.00
2023-05-05T05:16:58.940Z,1016.00
2023-05-05T05:17:58.925Z,1015.00
2023-05-05T05:19:01.397Z,1015.00
2023-05-05T05:19:58.636Z,1017.00
2023-05-05T05:20:58.522Z,1017.00
2023-05-05T05:21:58.435Z,1015.00
2023-05-05T05:22:58.306Z,1003.00
2023-05-05T05:23:58.698Z,930.00
2023-05-05T05:24:58.087Z,912.00
2023-05-05T05:25:57.995Z,916.00
2023-05-05T05:26:57.876Z,910.00
2023-05-05T05:28:08.823Z,892.00
2023-05-05T05:28:58.672Z,902.00
2023-05-05T05:29:57.565Z,875.00
2023-05-05T05:30:57.487Z,827.00
2023-05-05T05:31:57.401Z,844.00
2023-05-05T05:32:57.327Z,854.00
2023-05-05T05:33:57.232Z,956.00
2023-05-05T05:34:57.713Z,1002.00
2023-05-05T05:35:56.982Z,1000.00
2023-05-05T05:36:56.853Z,1064.00
2023-05-05T05:37:56.756Z,1065.00
2023-05-05T05:38:56.642Z,1074.00
2023-05-05T05:39:56.530Z,1131.00
2023-05-05T05:40:56.421Z,1151.00
2023-05-05T05:41:56.363Z,1166.00
2023-05-05T05:42:56.216Z,1170.00
2023-05-05T05:43:56.102Z,1170.00
2023-05-05T05:44:56.003Z,1182.00
2023-05-05T05:45:55.916Z,1198.00
2023-05-05T05:46:55.808Z,1205.00
2023-05-05T05:47:55.757Z,1210.00
2023-05-05T05:48:55.796Z,1219.00
2023-05-05T05:49:55.635Z,1234.00
2023-05-05T05:50:55.566Z,1239.00
2023-05-05T05:51:55.350Z,1244.00
2023-05-05T05:52:55.253Z,1257.00
2023-05-05T05:53:56.900Z,1277.00
2023-05-05T05:54:55.062Z,1288.00
2023-05-05T05:55:54.944Z,1283.00
2023-05-05T05:56:54.834Z,1057.00
2023-05-05T05:57:54.735Z,990.00
2023-05-05T05:58:54.611Z,883.00
2023-05-05T05:59:54.507Z,821.00
2023-05-05T06:00:54.412Z,787.00
2023-05-05T06:01:54.290Z,780.00
2023-05-05T06:02:54.311Z,772.00
2023-05-05T06:03:54.144Z,774.00
2023-05-05T06:04:53.983Z,779.00
2023-05-05T06:05:53.853Z,830.00
2023-05-05T06:06:53.740Z,834.00
2023-05-05T06:07:53.628Z,920.00
2023-05-05T06:08:53.522Z,953.00
2023-05-05T06:09:53.408Z,954.00
2023-05-05T06:10:53.311Z,959.00
2023-05-05T06:11:53.189Z,970.00
2023-05-05T06:12:53.112Z,1000.00
2023-05-05T06:13:52.981Z,1007.00
2023-05-05T06:14:52.866Z,1013.00
2023-05-05T06:15:52.782Z,1020.00
2023-05-05T06:16:52.646Z,1028.00
2023-05-05T06:17:52.575Z,1038.00
2023-05-05T06:18:52.414Z,1039.00
2023-05-05T06:19:54.071Z,1044.00
2023-05-05T06:20:52.166Z,1050.00
2023-05-05T06:21:52.052Z,1056.00
2023-05-05T06:22:51.940Z,1006.00
2023-05-05T06:23:51.830Z,935.00
2023-05-05T06:24:51.751Z,945.00
2023-05-05T06:25:51.696Z,918.00
2023-05-05T06:26:51.634Z,935.00
2023-05-05T06:27:51.577Z,937.00
2023-05-05T06:28:51.534Z,949.00
2023-05-05T06:29:51.469Z,957.00
2023-05-05T06:30:51.389Z,975.00
2023-05-05T06:31:51.345Z,988.00
2023-05-05T06:32:51.300Z,976.00
2023-05-05T06:33:51.185Z,971.00
2023-05-05T06:34:51.229Z,985.00
2023-05-05T06:35:51.098Z,993.00
2023-05-05T06:36:50.988Z,998.00
2023-05-05T06:37:50.879Z,1004.00
2023-05-05T06:38:50.799Z,1021.00
2023-05-05T06:39:50.723Z,1032.00
2023-05-05T06:40:50.628Z,1041.00
2023-05-05T06:41:50.536Z,1046.00
2023-05-05T06:42:50.455Z,1052.00
2023-05-05T06:43:50.369Z,1069.00
2023-05-05T06:44:50.316Z,1090.00
2023-05-05T06:45:50.188Z,1102.00
2023-05-05T06:46:50.152Z,1115.00
2023-05-05T06:47:50.017Z,1140.00
2023-05-05T06:48:49.904Z,1171.00
2023-05-05T06:49:49.806Z,1180.00
2023-05-05T06:50:49.694Z,1210.00
2023-05-05T06:51:49.593Z,1224.00
2023-05-05T06:52:49.550Z,1246.00
2023-05-05T06:53:49.450Z,1270.00
2023-05-05T06:54:49.294Z,1291.00
2023-05-05T06:55:49.186Z,1298.00
2023-05-05T06:56:49.089Z,1312.00
2023-05-05T06:57:48.978Z,1324.00
2023-05-05T06:58:48.873Z,1330.00
2023-05-05T06:59:48.774Z,1349.00
2023-05-05T07:00:48.717Z,1367.00
2023-05-05T07:01:48.572Z,1382.00
2023-05-05T07:02:48.497Z,1421.00
2023-05-05T07:03:48.385Z,1438.00
2023-05-05T07:04:48.274Z,1446.00
2023-05-05T07:05:48.147Z,1444.00
2023-05-05T07:06:48.042Z,1453.00
2023-05-05T07:07:47.935Z,1477.00
2023-05-05T07:08:47.814Z,1522.00
2023-05-05T07:09:47.897Z,1517.00
2023-05-05T07:10:47.616Z,1516.00
2023-05-05T07:11:47.534Z,1530.00
2023-05-05T07:12:47.453Z,1540.00
2023-05-05T07:13:47.355Z,1558.00
2023-05-05T07:14:47.292Z,1570.00
2023-05-05T07:15:47.157Z,1578.00
2023-05-05T07:16:47.110Z,1584.00
2023-05-05T07:17:47.036Z,1592.00
2023-05-05T07:18:46.924Z,1606.00
2023-05-05T07:19:46.865Z,1615.00
2023-05-05T07:20:46.759Z,1611.00
2023-05-05T07:21:46.677Z,1626.00
2023-05-05T07:22:46.603Z,1583.00
2023-05-05T07:23:46.679Z,1558.00
2023-05-05T07:24:46.477Z,1561.00
2023-05-05T07:25:46.537Z,1564.00
2023-05-05T07:26:46.340Z,1571.00
2023-05-05T07:27:46.277Z,1587.00
2023-05-05T07:28:46.258Z,1607.00
2023-05-05T07:29:46.670Z,1613.00
2023-05-05T07:30:46.145Z,1635.00
2023-05-05T07:31:46.735Z,1644.00
2023-05-05T07:32:46.313Z,1673.00
2023-05-05T07:33:45.965Z,1705.00
2023-05-05T07:34:45.903Z,1706.00
2023-05-05T07:35:45.824Z,1716.00
2023-05-05T07:36:45.771Z,1729.00
2023-05-05T07:37:45.719Z,1738.00
2023-05-05T07:38:45.643Z,1751.00
2023-05-05T07:39:45.581Z,1758.00
2023-05-05T07:40:45.518Z,1768.00
2023-05-05T07:41:46.310Z,1815.00
2023-05-05T07:42:45.380Z,1807.00
2023-05-05T07:43:45.344Z,1825.00
2023-05-05T07:44:45.264Z,1840.00
2023-05-05T07:45:46.189Z,1836.00
2023-05-05T07:46:45.147Z,1838.00
2023-05-05T07:47:45.120Z,1838.00
2023-05-05T07:48:45.040Z,1851.00
2023-05-05T07:49:44.981Z,1866.00
2023-05-05T07:50:44.922Z,1877.00
2023-05-05T07:51:44.849Z,1889.00
2023-05-05T07:52:48.238Z,1918.00
2023-05-05T07:53:45.674Z,1926.00
2023-05-05T07:54:44.536Z,1929.00
2023-05-05T07:55:44.407Z,1942.00
2023-05-05T07:56:44.291Z,1977.00
2023-05-05T07:57:44.291Z,1981.00
2023-05-05T07:58:44.055Z,1985.00
2023-05-05T07:59:43.945Z,1995.00
2023-05-05T08:00:43.813Z,1998.00
2023-05-05T08:01:43.689Z,2008.00
2023-05-05T08:02:43.646Z,2019.00
2023-05-05T08:03:43.618Z,2034.00
2023-05-05T08:04:43.444Z,2045.00
2023-05-05T08:05:43.392Z,2059.00
2023-05-05T08:06:43.308Z,2069.00
2023-05-05T08:07:43.278Z,2079.00
2023-05-05T08:08:43.151Z,2096.00
2023-05-05T08:09:43.091Z,2104.00
2023-05-05T08:10:43.687Z,2123.00
2023-05-05T08:11:43.768Z,2152.00
2023-05-05T08:12:42.880Z,2154.00
2023-05-05T08:13:42.853Z,2131.00
2023-05-05T08:14:42.742Z,2084.00
2023-05-05T08:15:42.700Z,2060.00
2023-05-05T08:16:42.606Z,2045.00
2023-05-05T08:17:42.589Z,2033.00
2023-05-05T08:18:42.440Z,2030.00
2023-05-05T08:19:42.361Z,1955.00
2023-05-05T08:20:42.285Z,1936.00
2023-05-05T08:21:42.224Z,1914.00
2023-05-05T08:22:42.154Z,1835.00
2023-05-05T08:23:42.094Z,1842.00
2023-05-05T08:24:42.036Z,1851.00
2023-05-05T08:25:41.957Z,1782.00
2023-05-05T08:26:41.883Z,1769.00
2023-05-05T08:27:41.818Z,1832.00
2023-05-05T08:28:41.732Z,1859.00
2023-05-05T08:29:41.717Z,1890.00
2023-05-05T08:30:41.572Z,1914.00
2023-05-05T08:31:41.619Z,2077.00
2023-05-05T08:32:41.514Z,2106.00
2023-05-05T08:33:42.198Z,2120.00
2023-05-05T08:34:41.252Z,2114.00
2023-05-05T08:35:41.163Z,2125.00
2023-05-05T08:36:41.075Z,2141.00
2023-05-05T08:37:40.983Z,2150.00
2023-05-05T08:38:40.896Z,2166.00
2023-05-05T08:39:40.801Z,2220.00
2023-05-05T08:40:40.741Z,2224.00
2023-05-05T08:41:40.634Z,2239.00
2023-05-05T08:42:40.528Z,2235.00
2023-05-05T08:43:41.203Z,2243.00
2023-05-05T08:44:40.343Z,2310.00
2023-05-05T08:45:40.331Z,2322.00
2023-05-05T08:46:40.185Z,2320.00
2023-05-05T08:47:40.152Z,2322.00
2023-05-05T08:48:39.918Z,2326.00
2023-05-05T08:49:39.813Z,2349.00
2023-05-05T08:50:39.715Z,2384.00
2023-05-05T08:51:39.613Z,2385.00
2023-05-05T08:52:39.593Z,2405.00
2023-05-05T08:53:39.424Z,2426.00
2023-05-05T08:54:39.303Z,2432.00
2023-05-05T08:55:39.201Z,2436.00
2023-05-05T08:56:39.106Z,2447.00
2023-05-05T08:57:39.761Z,2458.00
2023-05-05T08:58:38.919Z,2487.00
2023-05-05T08:59:38.801Z,2496.00
2023-05-05T09:00:38.728Z,2499.00
2023-05-05T09:01:38.628Z,2490.00
2023-05-05T09:02:38.588Z,2513.00
2023-05-05T09:03:38.454Z,2529.00
2023-05-05T09:04:38.279Z,2557.00
2023-05-05T09:05:38.165Z,2575.00
2023-05-05T09:06:38.069Z,2607.00
2023-05-05T09:07:37.953Z,2612.00
2023-05-05T09:08:37.845Z,2615.00
2023-05-05T09:09:37.741Z,2620.00
2023-05-05T09:10:37.628Z,2622.00
2023-05-05T09:11:37.516Z,2633.00
2023-05-05T09:12:37.425Z,2645.00
2023-05-05T09:13:37.383Z,2644.00
2023-05-05T09:14:37.184Z,2649.00
2023-05-05T09:15:37.093Z,2694.00
2023-05-05T09:16:37.009Z,2703.00
2023-05-05T09:17:36.955Z,2701.00
2023-05-05T09:18:36.748Z,2685.00
2023-05-05T09:19:36.621Z,2659.00
2023-05-05T09:20:36.528Z,2631.00
2023-05-05T09:21:36.425Z,2572.00
2023-05-05T09:22:36.324Z,2555.00
2023-05-05T09:23:36.219Z,2538.00
2023-05-05T09:24:36.109Z,2519.00
2023-05-05T09:25:36.012Z,2489.00
2023-05-05T09:26:35.916Z,2481.00
2023-05-05T09:27:35.827Z,2476.00
2023-05-05T09:28:37.225Z,2471.00
2023-05-05T09:29:35.644Z,2468.00
2023-05-05T09:30:35.551Z,2463.00
2023-05-05T09:31:35.474Z,2450.00
2023-05-05T09:32:35.380Z,2442.00
2023-05-05T09:33:35.376Z,2440.00
2023-05-05T09:34:35.231Z,2441.00
2023-05-05T09:35:35.139Z,2443.00
2023-05-05T09:36:35.077Z,2447.00
2023-05-05T09:37:35.013Z,2451.00
2023-05-05T09:38:34.981Z,2454.00
2023-05-05T09:39:34.907Z,2453.00
2023-05-05T09:40:34.802Z,2454.00
2023-05-05T09:41:34.717Z,2451.00
2023-05-05T09:42:34.643Z,2446.00
2023-05-05T09:43:34.600Z,2444.00
2023-05-05T09:44:34.541Z,2442.00
2023-05-05T09:45:34.480Z,2435.00
2023-05-05T09:46:34.506Z,2432.00
2023-05-05T09:47:35.513Z,2430.00
2023-05-05T09:48:37.780Z,2428.00
2023-05-05T09:49:34.218Z,2427.00
2023-05-05T09:50:34.056Z,2424.00
2023-05-05T09:51:33.904Z,2418.00
2023-05-05T09:52:33.773Z,2419.00
2023-05-05T09:53:33.661Z,2416.00
2023-05-05T09:54:33.527Z,2412.00
2023-05-05T09:55:33.549Z,2412.00
2023-05-05T09:56:33.251Z,2405.00
2023-05-05T09:57:33.130Z,2403.00
2023-05-05T09:58:33.919Z,2404.00
2023-05-05T09:59:35.083Z,2401.00
2023-05-05T10:00:32.788Z,2398.00
2023-05-05T10:01:32.677Z,2397.00
2023-05-05T10:02:32.626Z,2396.00
2023-05-05T10:03:32.372Z,2396.00
2023-05-05T10:04:32.858Z,2390.00
2023-05-05T10:05:32.211Z,2390.00
2023-05-05T10:06:32.056Z,2392.00
2023-05-05T10:07:31.977Z,2389.00
2023-05-05T10:08:31.917Z,2388.00
2023-05-05T10:09:31.826Z,2387.00
2023-05-05T10:10:31.958Z,2384.00
2023-05-05T10:11:31.627Z,2381.00
2023-05-05T10:12:31.547Z,2381.00
2023-05-05T10:13:31.431Z,2375.00
2023-05-05T10:14:31.290Z,2375.00
2023-05-05T10:15:31.176Z,2375.00
2023-05-05T10:16:31.186Z,2310.00
2023-05-05T10:17:31.011Z,2251.00
2023-05-05T10:18:30.941Z,2133.00
2023-05-05T10:19:30.775Z,1521.00
2023-05-05T10:20:30.689Z,1317.00
2023-05-05T10:21:30.702Z,1252.00
2023-05-05T10:22:30.556Z,1102.00
2023-05-05T10:23:30.487Z,1042.00
2023-05-05T10:24:30.432Z,1049.00
2023-05-05T10:25:30.354Z,908.00
2023-05-05T10:26:30.287Z,986.00
2023-05-05T10:27:30.216Z,986.00
2023-05-05T10:28:30.132Z,883.00
2023-05-05T10:29:30.039Z,868.00
2023-05-05T10:30:29.957Z,843.00
2023-05-05T10:31:29.921Z,826.00
2023-05-05T10:32:53.197Z,781.00
2023-05-05T10:33:32.235Z,771.00
2023-05-05T10:34:29.694Z,733.00
2023-05-05T10:35:29.371Z,717.00
2023-05-05T10:36:29.264Z,844.00
2023-05-05T10:37:29.230Z,755.00
2023-05-05T10:38:29.846Z,748.00
2023-05-05T10:39:28.875Z,792.00
2023-05-05T10:40:28.737Z,801.00
2023-05-05T10:41:28.606Z,924.00
2023-05-05T10:42:28.491Z,917.00
2023-05-05T10:43:28.347Z,855.00
2023-05-05T10:44:28.208Z,760.00
2023-05-05T10:45:28.119Z,753.00
2023-05-05T10:46:28.874Z,762.00
2023-05-05T10:47:27.999Z,733.00
2023-05-05T10:48:27.714Z,712.00
2023-05-05T10:49:27.551Z,703.00
2023-05-05T10:50:27.422Z,700.00
2023-05-05T10:51:38.525Z,806.00
2023-05-05T10:52:28.156Z,733.00
2023-05-05T10:53:27.114Z,714.00
2023-05-05T10:54:27.821Z,707.00
2023-05-05T10:55:26.740Z,714.00
2023-05-05T10:56:26.623Z,792.00
2023-05-05T10:57:26.478Z,773.00
2023-05-05T10:58:26.341Z,789.00
2023-05-05T10:59:26.208Z,798.00
2023-05-05T11:00:26.061Z,755.00
2023-05-05T11:01:25.966Z,767.00
2023-05-05T11:02:25.885Z,768.00
2023-05-05T11:03:25.740Z,756.00
2023-05-05T11:04:26.540Z,819.00
2023-05-05T11:05:25.409Z,828.00
2023-05-05T11:06:25.269Z,837.00
2023-05-05T11:07:25.132Z,843.00
2023-05-05T11:08:25.003Z,837.00
2023-05-05T11:09:24.881Z,827.00
2023-05-05T11:10:24.758Z,822.00
2023-05-05T11:11:24.624Z,819.00
2023-05-05T11:12:24.506Z,818.00
2023-05-05T11:13:24.485Z,814.00
2023-05-05T11:14:24.261Z,814.00
2023-05-05T11:15:24.166Z,816.00
2023-05-05T11:16:24.032Z,817.00
2023-05-05T11:17:23.914Z,816.00
2023-05-05T11:18:23.741Z,816.00
2023-05-05T11:19:23.615Z,816.00
2023-05-05T11:20:23.480Z,816.00
2023-05-05T11:21:23.361Z,818.00
2023-05-05T11:22:23.229Z,820.00
2023-05-05T11:23:23.113Z,822.00
2023-05-05T11:24:22.983Z,821.00
2023-05-05T11:25:22.956Z,820.00
2023-05-05T11:26:22.809Z,821.00
2023-05-05T11:27:22.734Z,819.00
2023-05-05T11:28:22.653Z,816.00
2023-05-05T11:29:22.571Z,816.00
2023-05-05T11:30:22.494Z,817.00
2023-05-05T11:31:22.448Z,819.00
2023-05-05T11:32:22.385Z,815.00
2023-05-05T11:33:22.275Z,815.00
2023-05-05T11:34:22.193Z,818.00
2023-05-05T11:35:22.123Z,818.00
2023-05-05T11:36:22.048Z,819.00
2023-05-05T11:37:21.976Z,820.00
2023-05-05T11:38:21.900Z,819.00
2023-05-05T11:39:21.825Z,818.00
2023-05-05T11:40:21.817Z,817.00
2023-05-05T11:41:21.802Z,817.00
2023-05-05T11:42:21.610Z,818.00
2023-05-05T11:43:21.545Z,817.00
2023-05-05T11:44:21.489Z,820.00
2023-05-05T11:45:21.425Z,821.00
2023-05-05T11:46:21.384Z,822.00
2023-05-05T11:47:21.328Z,822.00
2023-05-05T11:48:21.270Z,821.00
2023-05-05T11:49:21.193Z,819.00
2023-05-05T11:50:21.077Z,821.00
2023-05-05T11:51:21.871Z,822.00
2023-05-05T11:52:20.941Z,822.00
2023-05-05T11:53:20.942Z,822.00
2023-05-05T11:54:20.808Z,820.00
2023-05-05T11:55:20.750Z,820.00
2023-05-05T11:56:20.703Z,820.00
2023-05-05T11:57:20.680Z,820.00
2023-05-05T11:58:20.642Z,820.00
2023-05-05T11:59:20.498Z,821.00
2023-05-05T12:00:20.440Z,820.00
2023-05-05T12:01:20.382Z,819.00
2023-05-05T12:02:20.397Z,820.00
2023-05-05T12:03:20.413Z,818.00
2023-05-05T12:04:20.235Z,820.00
2023-05-05T12:05:20.188Z,821.00
2023-05-05T12:06:20.118Z,820.00
2023-05-05T12:07:20.092Z,821.00
2023-05-05T12:08:20.014Z,822.00
2023-05-05T12:09:19.961Z,823.00